Archival Weather

Norman Y Mineta San Jose Intl

San Jose, California (KSJC)

Report from: Sunday, February 18, 2024 3:53 PM PST
Current time: Thursday, June 20, 2024 11:57 PM PDT

Current weather – Weather history – Daily summaries
Weather forecast

Present weatherLight rain
Temperature18.3°C (64.9°F)
Dew point12.8°C (55.0°F)
Winds 7 kts (3.6 m/s, 8.1 mph) South-Southwest (210°)
Visibility7 mi. (11.3 km)
Clouds Few clouds 600 ft. (183 m)
Scattered clouds 3,200 ft. (975 m)
Ceiling: Broken clouds 3,900 ft. (1,189 m)
Altimeter29.77 in.Hg (1008 mB)
PrecipitiationTrace
Precip. events Rain ended 11:13 PM
Rain began 11:31 PM
Precip last 3 hoursTrace
Relative humidity70 %
Density altitude775 ft. (236 m)
Sea-level pressure100.8 kPa (1008 mB, 29.76 in.Hg)
Max temp last 6 hours21.1°C (70.0°F)
Min temp last 6 hours16.7°C (62.1°F)
Remarks Automated weather observing station with precipitation discriminator
Pressure falling more quickly
Flight conditions Visual Meteorological Conditions
Raw dataKSJC 182353Z 21007KT 7SM -RA FEW006 SCT032 BKN039 18/13 A2977 RMK AO2 RAE13B31 SLP079 P0000 60000 T01830128 10211 20167 58019
An error has occurred. This application may no longer respond until reloaded. Reload 🗙